Terminal Aerodrome Forecast
Issued by NWS

Home | Current Version | Previous Version | Text Only | Print | Product List | Glossary On
Versions: 1 2 3 4 5 6 7 8 9 10 11 12 13 14 15 16 17
000
FTUS43 KJKL 271100
TAFSME
TAF
KSME 271132Z 2712/2812 VRB05KT P6SM -SHRA VCTS BKN030CB BKN090
     FM271600 24010G20KT P6SM VCTS SCT040CB BKN100
      TEMPO 2718/2722 VRB20G40KT 2SM +TSRAPL BR BKN025CB
     FM272200 27005KT P6SM VCTS SCT040CB BKN100
     FM280700 29005KT 4SM BR BKN020=

USA.gov is the U.S. government's official web portal to all federal, state and local government web resources and services.